sensor_id;sensor_type;location;lat;lon;timestamp;P1;durP1;ratioP1;P2;durP2;ratioP2
36709;SDS011;22694;51.040;3.684;2022-11-20T00:00:57;26.23;;;19.55;;
36709;SDS011;22694;51.040;3.684;2022-11-20T00:03:28;27.45;;;20.17;;
36709;SDS011;22694;51.040;3.684;2022-11-20T00:05:58;25.35;;;20.05;;
36709;SDS011;22694;51.040;3.684;2022-11-20T00:08:25;25.77;;;19.42;;
36709;SDS011;22694;51.040;3.684;2022-11-20T00:10:50;26.48;;;20.20;;
36709;SDS011;22694;51.040;3.684;2022-11-20T00:13:16;24.00;;;18.83;;
36709;SDS011;22694;51.040;3.684;2022-11-20T00:15:42;24.65;;;19.23;;
36709;SDS011;22694;51.040;3.684;2022-11-20T00:18:07;24.98;;;19.10;;
36709;SDS011;22694;51.040;3.684;2022-11-20T00:20:33;26.38;;;19.58;;
36709;SDS011;22694;51.040;3.684;2022-11-20T00:22:58;27.75;;;19.65;;
36709;SDS011;22694;51.040;3.684;2022-11-20T00:25:24;26.65;;;20.60;;
36709;SDS011;22694;51.040;3.684;2022-11-20T00:27:50;28.95;;;19.67;;
36709;SDS011;22694;51.040;3.684;2022-11-20T00:30:15;24.63;;;18.23;;
36709;SDS011;22694;51.040;3.684;2022-11-20T00:32:41;26.02;;;18.98;;
36709;SDS011;22694;51.040;3.684;2022-11-20T00:35:07;23.88;;;17.73;;
36709;SDS011;22694;51.040;3.684;2022-11-20T00:37:32;25.05;;;18.55;;
36709;SDS011;22694;51.040;3.684;2022-11-20T00:39:58;24.85;;;18.20;;
36709;SDS011;22694;51.040;3.684;2022-11-20T00:42:23;24.45;;;18.25;;
36709;SDS011;22694;51.040;3.684;2022-11-20T00:44:49;24.73;;;19.02;;
36709;SDS011;22694;51.040;3.684;2022-11-20T00:47:15;23.92;;;18.63;;
36709;SDS011;22694;51.040;3.684;2022-11-20T00:49:40;21.75;;;17.67;;
36709;SDS011;22694;51.040;3.684;2022-11-20T00:52:06;23.42;;;18.45;;
36709;SDS011;22694;51.040;3.684;2022-11-20T00:54:31;24.50;;;17.50;;
36709;SDS011;22694;51.040;3.684;2022-11-20T00:56:57;24.35;;;18.67;;
36709;SDS011;22694;51.040;3.684;2022-11-20T00:59:23;24.40;;;18.48;;
36709;SDS011;22694;51.040;3.684;2022-11-20T01:01:48;26.00;;;18.35;;
36709;SDS011;22694;51.040;3.684;2022-11-20T01:04:14;22.15;;;17.38;;
36709;SDS011;22694;51.040;3.684;2022-11-20T01:06:39;21.77;;;16.95;;
36709;SDS011;22694;51.040;3.684;2022-11-20T01:09:06;24.13;;;18.33;;
36709;SDS011;22694;51.040;3.684;2022-11-20T01:11:35;22.75;;;18.05;;
36709;SDS011;22694;51.040;3.684;2022-11-20T01:14:03;23.95;;;18.30;;
36709;SDS011;22694;51.040;3.684;2022-11-20T01:16:31;22.30;;;16.67;;
36709;SDS011;22694;51.040;3.684;2022-11-20T01:19:12;20.10;;;16.63;;
36709;SDS011;22694;51.040;3.684;2022-11-20T01:21:40;22.73;;;17.40;;
36709;SDS011;22694;51.040;3.684;2022-11-20T01:24:08;23.35;;;17.08;;
36709;SDS011;22694;51.040;3.684;2022-11-20T01:26:37;23.48;;;16.80;;
36709;SDS011;22694;51.040;3.684;2022-11-20T01:29:04;22.90;;;16.42;;
36709;SDS011;22694;51.040;3.684;2022-11-20T01:31:30;22.60;;;17.05;;
36709;SDS011;22694;51.040;3.684;2022-11-20T01:33:58;22.10;;;17.20;;
36709;SDS011;22694;51.040;3.684;2022-11-20T01:36:26;22.15;;;17.90;;
36709;SDS011;22694;51.040;3.684;2022-11-20T01:39:00;19.52;;;16.52;;
36709;SDS011;22694;51.040;3.684;2022-11-20T01:41:29;23.00;;;17.13;;
36709;SDS011;22694;51.040;3.684;2022-11-20T01:44:16;20.48;;;16.83;;
36709;SDS011;22694;51.040;3.684;2022-11-20T01:49:28;22.60;;;17.63;;
36709;SDS011;22694;51.040;3.684;2022-11-20T01:52:07;22.88;;;17.13;;
36709;SDS011;22694;51.040;3.684;2022-11-20T01:54:49;24.48;;;16.45;;
36709;SDS011;22694;51.040;3.684;2022-11-20T01:57:34;23.63;;;16.70;;
36709;SDS011;22694;51.040;3.684;2022-11-20T02:00:09;22.48;;;16.98;;
36709;SDS011;22694;51.040;3.684;2022-11-20T02:02:38;21.30;;;16.92;;
36709;SDS011;22694;51.040;3.684;2022-11-20T02:05:12;24.02;;;18.60;;
36709;SDS011;22694;51.040;3.684;2022-11-20T02:07:53;21.52;;;16.25;;
36709;SDS011;22694;51.040;3.684;2022-11-20T02:10:21;21.33;;;16.58;;
36709;SDS011;22694;51.040;3.684;2022-11-20T02:12:47;19.30;;;15.38;;
36709;SDS011;22694;51.040;3.684;2022-11-20T02:15:32;22.23;;;17.10;;
36709;SDS011;22694;51.040;3.684;2022-11-20T02:17:58;20.98;;;16.38;;
36709;SDS011;22694;51.040;3.684;2022-11-20T02:20:24;23.10;;;16.77;;
36709;SDS011;22694;51.040;3.684;2022-11-20T02:22:52;22.33;;;16.60;;
36709;SDS011;22694;51.040;3.684;2022-11-20T02:25:25;25.98;;;17.70;;
36709;SDS011;22694;51.040;3.684;2022-11-20T02:27:52;21.67;;;16.67;;
36709;SDS011;22694;51.040;3.684;2022-11-20T02:30:18;21.77;;;16.58;;
36709;SDS011;22694;51.040;3.684;2022-11-20T02:32:43;20.17;;;16.25;;
36709;SDS011;22694;51.040;3.684;2022-11-20T02:35:35;22.08;;;16.33;;
36709;SDS011;22694;51.040;3.684;2022-11-20T02:37:55;22.17;;;16.77;;
36709;SDS011;22694;51.040;3.684;2022-11-20T02:40:23;23.20;;;17.63;;
36709;SDS011;22694;51.040;3.684;2022-11-20T02:42:55;22.48;;;16.55;;
36709;SDS011;22694;51.040;3.684;2022-11-20T02:45:21;20.10;;;16.50;;
36709;SDS011;22694;51.040;3.684;2022-11-20T02:47:50;23.15;;;16.67;;
36709;SDS011;22694;51.040;3.684;2022-11-20T02:50:16;23.58;;;17.27;;
36709;SDS011;22694;51.040;3.684;2022-11-20T02:52:42;22.55;;;16.13;;
36709;SDS011;22694;51.040;3.684;2022-11-20T02:55:08;20.25;;;15.48;;
36709;SDS011;22694;51.040;3.684;2022-11-20T02:57:34;21.08;;;16.08;;
36709;SDS011;22694;51.040;3.684;2022-11-20T02:59:59;20.08;;;15.63;;
36709;SDS011;22694;51.040;3.684;2022-11-20T03:02:25;22.35;;;16.80;;
36709;SDS011;22694;51.040;3.684;2022-11-20T03:04:54;20.77;;;15.40;;
36709;SDS011;22694;51.040;3.684;2022-11-20T03:07:19;21.30;;;16.08;;
36709;SDS011;22694;51.040;3.684;2022-11-20T03:09:45;21.55;;;15.63;;
36709;SDS011;22694;51.040;3.684;2022-11-20T03:12:11;21.45;;;16.40;;
36709;SDS011;22694;51.040;3.684;2022-11-20T03:14:36;21.92;;;16.35;;
36709;SDS011;22694;51.040;3.684;2022-11-20T03:17:02;20.52;;;15.48;;
36709;SDS011;22694;51.040;3.684;2022-11-20T03:19:27;20.10;;;15.07;;
36709;SDS011;22694;51.040;3.684;2022-11-20T03:21:53;22.15;;;16.15;;
36709;SDS011;22694;51.040;3.684;2022-11-20T03:24:19;19.88;;;14.57;;
36709;SDS011;22694;51.040;3.684;2022-11-20T03:26:44;23.75;;;15.90;;
36709;SDS011;22694;51.040;3.684;2022-11-20T03:29:10;21.50;;;16.65;;
36709;SDS011;22694;51.040;3.684;2022-11-20T03:31:37;22.55;;;15.60;;
36709;SDS011;22694;51.040;3.684;2022-11-20T03:34:07;24.15;;;16.42;;
36709;SDS011;22694;51.040;3.684;2022-11-20T03:36:34;21.58;;;15.30;;
36709;SDS011;22694;51.040;3.684;2022-11-20T03:39:00;21.98;;;15.52;;
36709;SDS011;22694;51.040;3.684;2022-11-20T03:41:27;20.85;;;15.32;;
36709;SDS011;22694;51.040;3.684;2022-11-20T03:43:55;24.05;;;15.88;;
36709;SDS011;22694;51.040;3.684;2022-11-20T03:46:21;19.33;;;14.50;;
36709;SDS011;22694;51.040;3.684;2022-11-20T03:48:47;20.13;;;15.65;;
36709;SDS011;22694;51.040;3.684;2022-11-20T03:51:18;20.65;;;15.65;;
36709;SDS011;22694;51.040;3.684;2022-11-20T03:54:10;20.10;;;15.40;;
36709;SDS011;22694;51.040;3.684;2022-11-20T03:56:36;21.45;;;15.90;;
36709;SDS011;22694;51.040;3.684;2022-11-20T03:59:04;21.55;;;16.27;;
36709;SDS011;22694;51.040;3.684;2022-11-20T04:01:31;20.92;;;15.38;;
36709;SDS011;22694;51.040;3.684;2022-11-20T04:03:58;20.25;;;14.65;;
36709;SDS011;22694;51.040;3.684;2022-11-20T04:06:25;20.67;;;15.63;;
36709;SDS011;22694;51.040;3.684;2022-11-20T04:08:55;21.35;;;14.93;;
36709;SDS011;22694;51.040;3.684;2022-11-20T04:11:26;21.52;;;15.43;;
36709;SDS011;22694;51.040;3.684;2022-11-20T04:13:54;20.20;;;14.98;;
36709;SDS011;22694;51.040;3.684;2022-11-20T04:16:25;19.10;;;15.85;;
36709;SDS011;22694;51.040;3.684;2022-11-20T04:18:54;21.70;;;16.33;;
36709;SDS011;22694;51.040;3.684;2022-11-20T04:21:22;18.33;;;14.60;;
36709;SDS011;22694;51.040;3.684;2022-11-20T04:23:48;21.85;;;15.73;;
36709;SDS011;22694;51.040;3.684;2022-11-20T04:26:15;20.88;;;15.68;;
36709;SDS011;22694;51.040;3.684;2022-11-20T04:28:41;20.17;;;15.05;;
36709;SDS011;22694;51.040;3.684;2022-11-20T04:31:07;22.25;;;15.75;;
36709;SDS011;22694;51.040;3.684;2022-11-20T04:33:37;21.20;;;16.15;;
36709;SDS011;22694;51.040;3.684;2022-11-20T04:36:09;20.52;;;15.02;;
36709;SDS011;22694;51.040;3.684;2022-11-20T04:38:40;21.50;;;14.25;;
36709;SDS011;22694;51.040;3.684;2022-11-20T04:41:15;21.08;;;15.38;;
36709;SDS011;22694;51.040;3.684;2022-11-20T04:43:45;20.73;;;15.18;;
36709;SDS011;22694;51.040;3.684;2022-11-20T04:46:13;21.27;;;15.27;;
36709;SDS011;22694;51.040;3.684;2022-11-20T04:48:39;20.42;;;14.90;;
36709;SDS011;22694;51.040;3.684;2022-11-20T04:51:04;21.50;;;14.88;;
36709;SDS011;22694;51.040;3.684;2022-11-20T04:53:31;19.33;;;14.65;;
36709;SDS011;22694;51.040;3.684;2022-11-20T04:56:00;20.65;;;14.32;;
36709;SDS011;22694;51.040;3.684;2022-11-20T04:58:27;19.33;;;15.25;;
36709;SDS011;22694;51.040;3.684;2022-11-20T05:00:53;20.85;;;14.55;;
36709;SDS011;22694;51.040;3.684;2022-11-20T05:03:25;21.75;;;15.43;;
36709;SDS011;22694;51.040;3.684;2022-11-20T05:05:50;19.42;;;14.90;;
36709;SDS011;22694;51.040;3.684;2022-11-20T05:08:16;20.15;;;14.70;;
36709;SDS011;22694;51.040;3.684;2022-11-20T05:10:41;19.48;;;14.82;;
36709;SDS011;22694;51.040;3.684;2022-11-20T05:13:07;21.15;;;15.13;;
36709;SDS011;22694;51.040;3.684;2022-11-20T05:15:33;22.13;;;16.15;;
36709;SDS011;22694;51.040;3.684;2022-11-20T05:17:58;22.65;;;15.75;;
36709;SDS011;22694;51.040;3.684;2022-11-20T05:20:24;21.10;;;15.52;;
36709;SDS011;22694;51.040;3.684;2022-11-20T05:22:49;20.13;;;15.25;;
36709;SDS011;22694;51.040;3.684;2022-11-20T05:25:15;21.95;;;15.93;;
36709;SDS011;22694;51.040;3.684;2022-11-20T05:27:40;20.85;;;14.70;;
36709;SDS011;22694;51.040;3.684;2022-11-20T05:30:06;23.17;;;15.57;;
36709;SDS011;22694;51.040;3.684;2022-11-20T05:32:33;23.42;;;15.60;;
36709;SDS011;22694;51.040;3.684;2022-11-20T05:34:58;22.13;;;16.10;;
36709;SDS011;22694;51.040;3.684;2022-11-20T05:37:24;22.55;;;15.73;;
36709;SDS011;22694;51.040;3.684;2022-11-20T05:39:49;23.85;;;16.17;;
36709;SDS011;22694;51.040;3.684;2022-11-20T05:42:15;24.23;;;16.05;;
36709;SDS011;22694;51.040;3.684;2022-11-20T05:44:56;24.95;;;15.07;;
36709;SDS011;22694;51.040;3.684;2022-11-20T05:47:26;26.50;;;16.35;;
36709;SDS011;22694;51.040;3.684;2022-11-20T05:49:52;22.73;;;16.27;;
36709;SDS011;22694;51.040;3.684;2022-11-20T05:52:18;22.27;;;14.45;;
36709;SDS011;22694;51.040;3.684;2022-11-20T05:54:44;23.55;;;16.45;;
36709;SDS011;22694;51.040;3.684;2022-11-20T05:57:09;25.50;;;16.75;;
36709;SDS011;22694;51.040;3.684;2022-11-20T05:59:35;20.10;;;14.85;;
36709;SDS011;22694;51.040;3.684;2022-11-20T06:02:00;22.85;;;16.00;;
36709;SDS011;22694;51.040;3.684;2022-11-20T06:04:26;23.75;;;15.98;;
36709;SDS011;22694;51.040;3.684;2022-11-20T06:06:52;24.20;;;15.15;;
36709;SDS011;22694;51.040;3.684;2022-11-20T06:09:17;26.05;;;16.08;;
36709;SDS011;22694;51.040;3.684;2022-11-20T06:11:43;22.65;;;15.93;;
36709;SDS011;22694;51.040;3.684;2022-11-20T06:14:08;24.80;;;17.35;;
36709;SDS011;22694;51.040;3.684;2022-11-20T06:16:34;23.23;;;16.45;;
36709;SDS011;22694;51.040;3.684;2022-11-20T06:18:59;23.42;;;16.05;;
36709;SDS011;22694;51.040;3.684;2022-11-20T06:21:25;24.60;;;15.55;;
36709;SDS011;22694;51.040;3.684;2022-11-20T06:23:51;25.23;;;16.45;;
36709;SDS011;22694;51.040;3.684;2022-11-20T06:26:20;22.70;;;15.80;;
36709;SDS011;22694;51.040;3.684;2022-11-20T06:28:47;24.05;;;16.15;;
36709;SDS011;22694;51.040;3.684;2022-11-20T06:31:13;23.95;;;16.80;;
36709;SDS011;22694;51.040;3.684;2022-11-20T06:33:40;22.92;;;16.08;;
36709;SDS011;22694;51.040;3.684;2022-11-20T06:36:07;22.92;;;14.75;;
36709;SDS011;22694;51.040;3.684;2022-11-20T06:38:34;22.48;;;16.45;;
36709;SDS011;22694;51.040;3.684;2022-11-20T06:41:00;24.13;;;15.57;;
36709;SDS011;22694;51.040;3.684;2022-11-20T06:43:25;24.67;;;16.48;;
36709;SDS011;22694;51.040;3.684;2022-11-20T06:45:53;24.40;;;16.83;;
36709;SDS011;22694;51.040;3.684;2022-11-20T06:48:23;22.08;;;15.45;;
36709;SDS011;22694;51.040;3.684;2022-11-20T06:50:50;24.08;;;15.93;;
36709;SDS011;22694;51.040;3.684;2022-11-20T06:53:15;23.80;;;16.35;;
36709;SDS011;22694;51.040;3.684;2022-11-20T06:55:42;23.85;;;15.15;;
36709;SDS011;22694;51.040;3.684;2022-11-20T06:58:08;27.52;;;16.83;;
36709;SDS011;22694;51.040;3.684;2022-11-20T07:00:34;23.70;;;15.63;;
36709;SDS011;22694;51.040;3.684;2022-11-20T07:03:04;24.70;;;15.27;;
36709;SDS011;22694;51.040;3.684;2022-11-20T07:05:30;25.25;;;16.20;;
36709;SDS011;22694;51.040;3.684;2022-11-20T07:07:56;23.05;;;15.20;;
36709;SDS011;22694;51.040;3.684;2022-11-20T07:10:22;23.73;;;16.40;;
36709;SDS011;22694;51.040;3.684;2022-11-20T07:12:51;23.00;;;15.55;;
36709;SDS011;22694;51.040;3.684;2022-11-20T07:15:18;24.90;;;15.93;;
36709;SDS011;22694;51.040;3.684;2022-11-20T07:17:45;24.98;;;16.38;;
36709;SDS011;22694;51.040;3.684;2022-11-20T07:20:11;21.10;;;14.85;;
36709;SDS011;22694;51.040;3.684;2022-11-20T07:22:37;23.00;;;15.23;;
36709;SDS011;22694;51.040;3.684;2022-11-20T07:25:03;21.63;;;15.18;;
36709;SDS011;22694;51.040;3.684;2022-11-20T07:27:29;23.38;;;15.10;;
36709;SDS011;22694;51.040;3.684;2022-11-20T07:29:55;23.65;;;14.80;;
36709;SDS011;22694;51.040;3.684;2022-11-20T07:32:21;21.80;;;14.73;;
36709;SDS011;22694;51.040;3.684;2022-11-20T07:34:47;22.83;;;15.63;;
36709;SDS011;22694;51.040;3.684;2022-11-20T07:37:13;21.05;;;14.32;;
36709;SDS011;22694;51.040;3.684;2022-11-20T07:39:39;22.33;;;14.52;;
36709;SDS011;22694;51.040;3.684;2022-11-20T07:42:05;22.85;;;15.07;;
36709;SDS011;22694;51.040;3.684;2022-11-20T07:44:31;24.50;;;15.30;;
36709;SDS011;22694;51.040;3.684;2022-11-20T07:46:57;22.80;;;14.52;;
36709;SDS011;22694;51.040;3.684;2022-11-20T07:49:23;25.00;;;14.40;;
36709;SDS011;22694;51.040;3.684;2022-11-20T07:51:51;21.83;;;14.68;;
36709;SDS011;22694;51.040;3.684;2022-11-20T07:54:21;22.85;;;15.55;;
36709;SDS011;22694;51.040;3.684;2022-11-20T07:56:47;23.58;;;14.82;;
36709;SDS011;22694;51.040;3.684;2022-11-20T07:59:13;22.90;;;14.70;;
36709;SDS011;22694;51.040;3.684;2022-11-20T08:01:39;23.65;;;14.38;;
36709;SDS011;22694;51.040;3.684;2022-11-20T08:04:05;20.85;;;13.70;;
36709;SDS011;22694;51.040;3.684;2022-11-20T08:06:31;19.30;;;12.30;;
36709;SDS011;22694;51.040;3.684;2022-11-20T08:08:56;19.67;;;11.60;;
36709;SDS011;22694;51.040;3.684;2022-11-20T08:11:22;17.23;;;11.13;;
36709;SDS011;22694;51.040;3.684;2022-11-20T08:14:06;15.57;;;10.32;;
36709;SDS011;22694;51.040;3.684;2022-11-20T08:16:38;17.52;;;11.77;;
36709;SDS011;22694;51.040;3.684;2022-11-20T08:19:05;17.80;;;11.27;;
36709;SDS011;22694;51.040;3.684;2022-11-20T08:21:32;16.95;;;11.20;;
36709;SDS011;22694;51.040;3.684;2022-11-20T08:23:58;16.23;;;11.90;;
36709;SDS011;22694;51.040;3.684;2022-11-20T08:26:24;19.48;;;12.45;;
36709;SDS011;22694;51.040;3.684;2022-11-20T08:28:54;17.77;;;12.40;;
36709;SDS011;22694;51.040;3.684;2022-11-20T08:31:20;19.20;;;11.93;;
36709;SDS011;22694;51.040;3.684;2022-11-20T08:33:46;19.95;;;12.60;;
36709;SDS011;22694;51.040;3.684;2022-11-20T08:36:12;17.80;;;11.38;;
36709;SDS011;22694;51.040;3.684;2022-11-20T08:38:38;19.55;;;12.02;;
36709;SDS011;22694;51.040;3.684;2022-11-20T08:41:04;18.77;;;11.23;;
36709;SDS011;22694;51.040;3.684;2022-11-20T08:43:51;18.50;;;12.13;;
36709;SDS011;22694;51.040;3.684;2022-11-20T08:46:19;16.33;;;11.70;;
36709;SDS011;22694;51.040;3.684;2022-11-20T08:48:45;17.83;;;11.82;;
36709;SDS011;22694;51.040;3.684;2022-11-20T08:51:11;17.77;;;12.40;;
36709;SDS011;22694;51.040;3.684;2022-11-20T08:53:38;16.15;;;11.02;;
36709;SDS011;22694;51.040;3.684;2022-11-20T08:56:04;17.25;;;10.35;;
36709;SDS011;22694;51.040;3.684;2022-11-20T08:58:30;15.85;;;10.68;;
36709;SDS011;22694;51.040;3.684;2022-11-20T09:00:56;16.92;;;11.30;;
36709;SDS011;22694;51.040;3.684;2022-11-20T09:03:21;28.73;;;13.20;;
36709;SDS011;22694;51.040;3.684;2022-11-20T09:05:47;24.33;;;12.48;;
36709;SDS011;22694;51.040;3.684;2022-11-20T09:08:13;18.60;;;10.73;;
36709;SDS011;22694;51.040;3.684;2022-11-20T09:10:39;18.77;;;11.75;;
36709;SDS011;22694;51.040;3.684;2022-11-20T09:13:04;19.77;;;11.30;;
36709;SDS011;22694;51.040;3.684;2022-11-20T09:15:31;16.70;;;10.82;;
36709;SDS011;22694;51.040;3.684;2022-11-20T09:18:01;17.05;;;11.40;;
36709;SDS011;22694;51.040;3.684;2022-11-20T09:20:28;15.60;;;11.02;;
36709;SDS011;22694;51.040;3.684;2022-11-20T09:22:55;20.40;;;11.98;;
36709;SDS011;22694;51.040;3.684;2022-11-20T09:25:21;17.58;;;11.35;;
36709;SDS011;22694;51.040;3.684;2022-11-20T09:27:47;19.05;;;11.27;;
36709;SDS011;22694;51.040;3.684;2022-11-20T09:30:16;17.92;;;11.13;;
36709;SDS011;22694;51.040;3.684;2022-11-20T09:32:42;16.60;;;10.65;;
36709;SDS011;22694;51.040;3.684;2022-11-20T09:35:08;16.83;;;10.13;;
36709;SDS011;22694;51.040;3.684;2022-11-20T09:37:35;18.30;;;10.02;;
36709;SDS011;22694;51.040;3.684;2022-11-20T09:40:00;15.32;;;10.40;;
36709;SDS011;22694;51.040;3.684;2022-11-20T09:42:40;16.35;;;10.75;;
36709;SDS011;22694;51.040;3.684;2022-11-20T09:45:30;18.80;;;9.68;;
36709;SDS011;22694;51.040;3.684;2022-11-20T09:50:47;18.38;;;10.88;;
36709;SDS011;22694;51.040;3.684;2022-11-20T09:53:23;17.10;;;10.68;;
36709;SDS011;22694;51.040;3.684;2022-11-20T09:56:00;19.38;;;10.88;;
36709;SDS011;22694;51.040;3.684;2022-11-20T09:58:40;16.60;;;10.85;;
36709;SDS011;22694;51.040;3.684;2022-11-20T10:01:26;16.92;;;11.20;;
36709;SDS011;22694;51.040;3.684;2022-11-20T10:04:01;17.60;;;11.25;;
36709;SDS011;22694;51.040;3.684;2022-11-20T10:06:51;14.13;;;10.50;;
36709;SDS011;22694;51.040;3.684;2022-11-20T10:09:32;14.30;;;10.15;;
36709;SDS011;22694;51.040;3.684;2022-11-20T10:12:06;15.13;;;11.07;;
36709;SDS011;22694;51.040;3.684;2022-11-20T10:26:22;22.40;;;9.32;;
36709;SDS011;22694;51.040;3.684;2022-11-20T10:29:09;12.63;;;8.93;;
36709;SDS011;22694;51.040;3.684;2022-11-20T10:31:41;11.75;;;9.00;;
36709;SDS011;22694;51.040;3.684;2022-11-20T10:34:18;13.98;;;9.23;;
36709;SDS011;22694;51.040;3.684;2022-11-20T10:42:16;11.98;;;7.90;;
36709;SDS011;22694;51.040;3.684;2022-11-20T10:44:57;12.38;;;7.72;;
36709;SDS011;22694;51.040;3.684;2022-11-20T10:47:27;13.65;;;7.88;;
36709;SDS011;22694;51.040;3.684;2022-11-20T10:49:56;9.63;;;7.38;;
36709;SDS011;22694;51.040;3.684;2022-11-20T10:58:22;8.80;;;6.90;;
36709;SDS011;22694;51.040;3.684;2022-11-20T11:01:04;8.75;;;6.18;;
36709;SDS011;22694;51.040;3.684;2022-11-20T11:08:50;6.70;;;4.60;;
36709;SDS011;22694;51.040;3.684;2022-11-20T11:11:22;7.78;;;6.13;;
36709;SDS011;22694;51.040;3.684;2022-11-20T11:13:50;8.20;;;5.72;;
36709;SDS011;22694;51.040;3.684;2022-11-20T11:16:19;9.95;;;6.10;;
36709;SDS011;22694;51.040;3.684;2022-11-20T11:18:50;9.63;;;6.43;;
36709;SDS011;22694;51.040;3.684;2022-11-20T11:21:25;7.13;;;5.30;;
36709;SDS011;22694;51.040;3.684;2022-11-20T11:23:59;8.98;;;5.22;;
36709;SDS011;22694;51.040;3.684;2022-11-20T11:26:27;7.95;;;5.35;;
36709;SDS011;22694;51.040;3.684;2022-11-20T11:28:57;7.00;;;4.82;;
36709;SDS011;22694;51.040;3.684;2022-11-20T11:31:28;7.50;;;4.95;;
36709;SDS011;22694;51.040;3.684;2022-11-20T11:34:11;6.83;;;5.07;;
36709;SDS011;22694;51.040;3.684;2022-11-20T11:36:39;8.52;;;4.40;;
36709;SDS011;22694;51.040;3.684;2022-11-20T11:39:05;6.10;;;4.80;;
36709;SDS011;22694;51.040;3.684;2022-11-20T11:41:39;5.95;;;4.22;;
36709;SDS011;22694;51.040;3.684;2022-11-20T11:47:11;7.63;;;5.28;;
36709;SDS011;22694;51.040;3.684;2022-11-20T11:58:14;5.97;;;4.75;;
36709;SDS011;22694;51.040;3.684;2022-11-20T12:00:48;5.65;;;4.60;;
36709;SDS011;22694;51.040;3.684;2022-11-20T12:03:39;6.80;;;5.15;;
36709;SDS011;22694;51.040;3.684;2022-11-20T12:06:10;7.68;;;4.53;;
36709;SDS011;22694;51.040;3.684;2022-11-20T12:08:49;6.18;;;4.45;;
36709;SDS011;22694;51.040;3.684;2022-11-20T12:11:46;6.43;;;4.68;;
36709;SDS011;22694;51.040;3.684;2022-11-20T12:14:19;6.38;;;4.20;;
36709;SDS011;22694;51.040;3.684;2022-11-20T12:16:51;4.82;;;4.00;;
36709;SDS011;22694;51.040;3.684;2022-11-20T12:19:18;4.63;;;3.78;;
36709;SDS011;22694;51.040;3.684;2022-11-20T12:21:55;4.93;;;3.60;;
36709;SDS011;22694;51.040;3.684;2022-11-20T12:30:25;4.22;;;3.47;;
36709;SDS011;22694;51.040;3.684;2022-11-20T12:32:58;3.97;;;3.50;;
36709;SDS011;22694;51.040;3.684;2022-11-20T12:41:50;5.28;;;3.03;;
36709;SDS011;22694;51.040;3.684;2022-11-20T12:50:44;5.80;;;3.45;;
36709;SDS011;22694;51.040;3.684;2022-11-20T12:59:23;3.25;;;2.55;;
36709;SDS011;22694;51.040;3.684;2022-11-20T13:01:55;3.72;;;2.50;;
36709;SDS011;22694;51.040;3.684;2022-11-20T13:07:24;4.45;;;2.90;;
36709;SDS011;22694;51.040;3.684;2022-11-20T13:09:52;3.55;;;2.42;;
36709;SDS011;22694;51.040;3.684;2022-11-20T13:12:33;3.58;;;2.45;;
36709;SDS011;22694;51.040;3.684;2022-11-20T13:15:26;4.15;;;2.58;;
36709;SDS011;22694;51.040;3.684;2022-11-20T13:17:57;4.45;;;2.60;;
36709;SDS011;22694;51.040;3.684;2022-11-20T13:20:25;5.13;;;2.65;;
36709;SDS011;22694;51.040;3.684;2022-11-20T13:22:52;3.55;;;2.25;;
36709;SDS011;22694;51.040;3.684;2022-11-20T13:25:32;2.88;;;2.30;;
36709;SDS011;22694;51.040;3.684;2022-11-20T13:28:00;3.45;;;2.00;;
36709;SDS011;22694;51.040;3.684;2022-11-20T13:30:29;3.25;;;2.17;;
36709;SDS011;22694;51.040;3.684;2022-11-20T13:33:07;4.25;;;1.90;;
36709;SDS011;22694;51.040;3.684;2022-11-20T13:40:54;2.05;;;1.63;;
36709;SDS011;22694;51.040;3.684;2022-11-20T13:43:27;3.33;;;1.95;;
36709;SDS011;22694;51.040;3.684;2022-11-20T13:46:04;2.83;;;1.98;;
36709;SDS011;22694;51.040;3.684;2022-11-20T13:48:32;5.55;;;2.05;;
36709;SDS011;22694;51.040;3.684;2022-11-20T13:59:38;1.63;;;1.45;;
36709;SDS011;22694;51.040;3.684;2022-11-20T14:02:14;3.28;;;1.70;;
36709;SDS011;22694;51.040;3.684;2022-11-20T14:04:45;2.20;;;1.77;;
36709;SDS011;22694;51.040;3.684;2022-11-20T14:07:13;2.17;;;1.60;;
36709;SDS011;22694;51.040;3.684;2022-11-20T14:09:48;2.20;;;1.73;;
36709;SDS011;22694;51.040;3.684;2022-11-20T14:12:22;2.70;;;1.50;;
36709;SDS011;22694;51.040;3.684;2022-11-20T14:14:57;1.92;;;1.40;;
36709;SDS011;22694;51.040;3.684;2022-11-20T14:17:24;3.55;;;1.60;;
36709;SDS011;22694;51.040;3.684;2022-11-20T14:20:06;2.17;;;1.60;;
36709;SDS011;22694;51.040;3.684;2022-11-20T14:22:37;2.67;;;1.25;;
36709;SDS011;22694;51.040;3.684;2022-11-20T14:25:17;1.70;;;1.42;;
36709;SDS011;22694;51.040;3.684;2022-11-20T14:30:25;1.73;;;1.30;;
36709;SDS011;22694;51.040;3.684;2022-11-20T14:32:54;1.55;;;1.30;;
36709;SDS011;22694;51.040;3.684;2022-11-20T14:37:52;1.13;;;1.02;;
36709;SDS011;22694;51.040;3.684;2022-11-20T14:40:22;1.42;;;1.33;;
36709;SDS011;22694;51.040;3.684;2022-11-20T14:42:51;1.48;;;1.30;;
36709;SDS011;22694;51.040;3.684;2022-11-20T14:45:17;2.65;;;1.52;;
36709;SDS011;22694;51.040;3.684;2022-11-20T14:47:43;1.40;;;1.30;;
36709;SDS011;22694;51.040;3.684;2022-11-20T14:50:18;1.42;;;1.20;;
36709;SDS011;22694;51.040;3.684;2022-11-20T14:53:05;1.48;;;1.33;;
36709;SDS011;22694;51.040;3.684;2022-11-20T14:55:31;1.73;;;1.13;;
36709;SDS011;22694;51.040;3.684;2022-11-20T14:58:06;2.05;;;1.45;;
36709;SDS011;22694;51.040;3.684;2022-11-20T15:00:59;1.48;;;1.08;;
36709;SDS011;22694;51.040;3.684;2022-11-20T15:03:33;2.45;;;1.20;;
36709;SDS011;22694;51.040;3.684;2022-11-20T15:06:03;1.58;;;1.20;;
36709;SDS011;22694;51.040;3.684;2022-11-20T15:08:30;1.88;;;1.13;;
36709;SDS011;22694;51.040;3.684;2022-11-20T15:10:55;1.70;;;1.30;;
36709;SDS011;22694;51.040;3.684;2022-11-20T15:15:58;1.95;;;1.20;;
36709;SDS011;22694;51.040;3.684;2022-11-20T15:18:28;2.10;;;1.20;;
36709;SDS011;22694;51.040;3.684;2022-11-20T15:20:57;1.17;;;1.08;;
36709;SDS011;22694;51.040;3.684;2022-11-20T15:23:27;1.60;;;1.13;;
36709;SDS011;22694;51.040;3.684;2022-11-20T15:25:53;4.15;;;1.60;;
36709;SDS011;22694;51.040;3.684;2022-11-20T15:28:20;2.10;;;1.05;;
36709;SDS011;22694;51.040;3.684;2022-11-20T15:30:55;3.30;;;1.30;;
36709;SDS011;22694;51.040;3.684;2022-11-20T15:33:23;1.60;;;0.93;;
36709;SDS011;22694;51.040;3.684;2022-11-20T15:35:48;1.20;;;1.00;;
36709;SDS011;22694;51.040;3.684;2022-11-20T15:38:14;1.83;;;1.05;;
36709;SDS011;22694;51.040;3.684;2022-11-20T15:40:40;2.22;;;1.60;;
36709;SDS011;22694;51.040;3.684;2022-11-20T15:43:06;2.28;;;1.45;;
36709;SDS011;22694;51.040;3.684;2022-11-20T15:45:37;1.70;;;0.98;;
36709;SDS011;22694;51.040;3.684;2022-11-20T15:53:30;6.95;;;1.70;;
36709;SDS011;22694;51.040;3.684;2022-11-20T15:55:56;7.05;;;1.67;;
36709;SDS011;22694;51.040;3.684;2022-11-20T15:58:22;4.80;;;1.60;;
36709;SDS011;22694;51.040;3.684;2022-11-20T16:00:49;8.52;;;1.80;;
36709;SDS011;22694;51.040;3.684;2022-11-20T16:03:15;4.78;;;1.80;;
36709;SDS011;22694;51.040;3.684;2022-11-20T16:05:41;4.72;;;1.27;;
36709;SDS011;22694;51.040;3.684;2022-11-20T16:08:07;3.63;;;1.55;;
36709;SDS011;22694;51.040;3.684;2022-11-20T16:10:32;4.57;;;1.63;;
36709;SDS011;22694;51.040;3.684;2022-11-20T16:12:58;4.88;;;1.45;;
36709;SDS011;22694;51.040;3.684;2022-11-20T16:15:44;3.17;;;1.30;;
36709;SDS011;22694;51.040;3.684;2022-11-20T16:18:20;4.43;;;1.35;;
36709;SDS011;22694;51.040;3.684;2022-11-20T16:20:48;2.60;;;1.13;;